Time;durP1;ratioP1;P1;durP2;ratioP2;P2;SDS_P1;SDS_P2;PMS_P1;PMS_P2;Temp;Humidity;BMP_temperature;BMP_pressure;BME280_temperature;BME280_humidity;BME280_pressure;Samples;Min_cycle;Max_cycle;Signal;HPM_P1;HPM_P2
2023/07/26 00:01:20;;;;;;;;;1.67;1.67;;;;;16.26;58.38;101097.34;5049309;28;8994;-67
2023/07/26 00:03:47;;;;;;;;;1.00;1.00;;;;;16.23;58.61;101100.50;5042655;28;8990;-69
2023/07/26 00:06:14;;;;;;;;;0.00;0.00;;;;;16.21;58.75;101090.94;5046919;28;8988;-67
2023/07/26 00:08:40;;;;;;;;;2.00;2.00;;;;;16.18;59.23;101085.97;5042352;28;8834;-67
2023/07/26 00:11:07;;;;;;;;;2.33;2.33;;;;;16.17;59.31;101092.44;5041346;28;9664;-67
2023/07/26 00:13:33;;;;;;;;;1.00;0.33;;;;;16.16;59.21;101085.34;5050206;28;9105;-68
2023/07/26 00:16:00;;;;;;;;;1.00;1.00;;;;;16.14;59.19;101085.56;5041557;28;9057;-67
2023/07/26 00:18:26;;;;;;;;;1.00;1.00;;;;;16.11;59.18;101077.03;5037812;28;9172;-66
2023/07/26 00:20:53;;;;;;;;;0.00;0.00;;;;;16.10;59.68;101084.38;5030142;28;9185;-67
2023/07/26 00:23:20;;;;;;;;;0.00;0.00;;;;;16.09;59.41;101088.16;5034674;28;9151;-67
2023/07/26 00:25:46;;;;;;;;;1.00;1.00;;;;;16.04;60.12;101085.25;5041123;28;9060;-66
2023/07/26 00:28:13;;;;;;;;;0.00;0.00;;;;;16.04;60.04;101079.81;5034070;28;9101;-67
2023/07/26 00:30:39;;;;;;;;;1.67;1.67;;;;;16.01;60.11;101081.13;5039689;28;9093;-66
2023/07/26 00:33:06;;;;;;;;;1.00;1.00;;;;;16.02;59.91;101081.94;5033599;28;9232;-68
2023/07/26 00:35:40;;;;;;;;;1.00;1.00;;;;;15.98;60.31;101078.00;5048252;28;9175;-67
2023/07/26 00:38:06;;;;;;;;;0.67;0.67;;;;;15.96;60.52;101069.25;5050148;28;9919;-67
2023/07/26 00:40:33;;;;;;;;;1.67;1.00;;;;;15.95;60.42;101086.59;5046612;28;8983;-66
2023/07/26 00:42:59;;;;;;;;;1.00;1.00;;;;;15.91;60.48;101082.66;5043216;28;9090;-67
2023/07/26 00:45:30;;;;;;;;;1.00;1.00;;;;;15.87;60.89;101084.16;5042922;28;9247;-67
2023/07/26 00:47:57;;;;;;;;;2.00;2.00;;;;;15.83;60.70;101089.22;5043465;28;9122;-68
2023/07/26 00:50:26;;;;;;;;;2.00;1.67;;;;;15.77;61.10;101081.97;5044052;28;9223;-68
2023/07/26 00:52:53;;;;;;;;;1.33;1.33;;;;;15.72;61.16;101079.94;5042450;28;9388;-67
2023/07/26 00:55:20;;;;;;;;;2.00;2.00;;;;;15.70;61.41;101079.31;5031954;28;9199;-68
2023/07/26 00:57:46;;;;;;;;;1.00;1.00;;;;;15.68;61.25;101086.84;5064868;28;9158;-68
2023/07/26 01:00:15;;;;;;;;;1.00;1.00;;;;;15.68;61.43;101080.59;5048305;28;9167;-66
2023/07/26 01:02:41;;;;;;;;;3.33;2.00;;;;;15.64;61.86;101082.91;5047805;28;9231;-67
2023/07/26 01:05:08;;;;;;;;;0.33;0.33;;;;;15.64;61.64;101082.91;5037814;28;9172;-66
2023/07/26 01:07:41;;;;;;;;;1.00;1.00;;;;;15.66;61.93;101088.13;5039467;28;9814;-66
2023/07/26 01:10:16;;;;;;;;;2.00;1.00;;;;;15.64;61.84;101088.31;5037988;28;8980;-67
2023/07/26 01:12:50;;;;;;;;;3.00;1.00;;;;;15.64;62.06;101082.91;5022737;28;9167;-68
2023/07/26 01:15:23;;;;;;;;;2.00;1.00;;;;;15.62;61.96;101076.84;5041226;28;9011;-66
2023/07/26 01:18:15;;;;;;;;;1.00;1.00;;;;;15.59;61.97;101080.81;5049583;28;9947;-68
2023/07/26 01:20:42;;;;;;;;;1.00;1.00;;;;;15.57;62.42;101079.41;5047210;28;9073;-68
2023/07/26 01:23:09;;;;;;;;;0.33;0.33;;;;;15.53;62.16;101079.00;5043290;28;9651;-69
2023/07/26 01:25:36;;;;;;;;;3.00;1.00;;;;;15.50;62.59;101084.03;5036107;28;9235;-69
2023/07/26 01:28:03;;;;;;;;;2.33;2.00;;;;;15.45;62.52;101075.75;5047954;28;10120;-70
2023/07/26 01:30:32;;;;;;;;;1.00;1.00;;;;;15.43;62.88;101083.25;5049575;28;9304;-70
2023/07/26 01:33:04;;;;;;;;;1.00;1.00;;;;;15.40;62.91;101089.16;5048287;28;9395;-68
2023/07/26 01:35:31;;;;;;;;;3.00;2.00;;;;;15.37;63.06;101084.16;5041148;28;9272;-69
2023/07/26 01:37:59;;;;;;;;;1.67;1.67;;;;;15.34;63.17;101079.97;5044078;28;9358;-69
2023/07/26 01:40:26;;;;;;;;;5.00;2.00;;;;;15.30;63.41;101076.03;5045781;28;9193;-68
2023/07/26 01:42:53;;;;;;;;;4.33;2.67;;;;;15.25;63.31;101084.84;5030708;28;9309;-66
2023/07/26 01:45:20;;;;;;;;;2.00;2.00;;;;;15.25;63.79;101076.72;5037917;28;9482;-69
2023/07/26 01:47:46;;;;;;;;;2.00;2.00;;;;;15.24;63.87;101069.63;5042041;28;9243;-68
2023/07/26 01:50:13;;;;;;;;;2.33;2.00;;;;;15.22;63.91;101066.28;5044482;28;9325;-68
2023/07/26 01:52:40;;;;;;;;;1.00;1.00;;;;;15.22;63.98;101065.47;5050299;28;9306;-69
2023/07/26 01:55:07;;;;;;;;;1.00;1.00;;;;;15.19;63.97;101069.47;5037659;28;9439;-69
2023/07/26 01:57:33;;;;;;;;;2.67;1.67;;;;;15.18;64.13;101064.25;5040744;28;9321;-68
2023/07/26 02:00:00;;;;;;;;;5.00;1.33;;;;;15.18;64.10;101077.81;5027135;28;9348;-69
2023/07/26 02:02:27;;;;;;;;;2.50;2.50;;;;;15.16;64.21;101072.59;5049508;28;9359;-69
2023/07/26 02:04:54;;;;;;;;;1.25;1.25;;;;;15.17;64.10;101081.56;5051741;28;9372;-69
2023/07/26 02:07:20;;;;;;;;;1.00;1.00;;;;;15.14;64.32;101071.97;5051529;28;9468;-67
2023/07/26 02:09:47;;;;;;;;;2.00;1.00;;;;;15.11;63.95;101071.59;5051563;28;9557;-68
2023/07/26 02:12:13;;;;;;;;;2.00;2.00;;;;;15.08;64.30;101079.13;5051416;28;9455;-67
2023/07/26 02:14:40;;;;;;;;;1.67;1.67;;;;;15.04;64.31;101079.78;5068277;28;9262;-68
2023/07/26 02:17:07;;;;;;;;;2.00;2.00;;;;;15.02;64.33;101079.97;5065516;28;9312;-67
2023/07/26 02:19:33;;;;;;;;;3.00;3.00;;;;;15.01;64.52;101072.91;5041688;28;10191;-68
2023/07/26 02:22:00;;;;;;;;;1.25;1.25;;;;;15.01;64.74;101080.22;5034286;28;10089;-68
2023/07/26 02:24:27;;;;;;;;;1.00;1.00;;;;;14.99;64.75;101079.59;5031281;28;9370;-67
2023/07/26 02:26:54;;;;;;;;;1.33;1.33;;;;;14.98;64.53;101069.78;5032527;28;9392;-68
2023/07/26 02:29:20;;;;;;;;;0.67;0.67;;;;;14.98;64.78;101072.50;5042664;28;9468;-68
2023/07/26 02:31:47;;;;;;;;;3.33;2.00;;;;;14.95;64.82;101067.50;5044588;28;9546;-66
2023/07/26 02:34:14;;;;;;;;;1.00;1.00;;;;;14.93;64.97;101073.16;5060827;28;9336;-69
2023/07/26 02:36:41;;;;;;;;;2.00;2.00;;;;;14.93;65.04;101069.63;5045809;28;9305;-68
2023/07/26 02:39:07;;;;;;;;;2.00;1.75;;;;;14.92;65.04;101076.94;5031087;28;9450;-68
2023/07/26 02:41:36;;;;;;;;;1.67;1.67;;;;;14.91;65.19;101071.69;5032046;28;9387;-68
2023/07/26 02:44:03;;;;;;;;;2.25;2.25;;;;;14.91;65.19;101063.56;5036866;28;9296;-69
2023/07/26 02:46:29;;;;;;;;;2.00;1.00;;;;;14.92;65.35;101063.38;5036560;28;9490;-67
2023/07/26 02:48:56;;;;;;;;;2.00;2.00;;;;;14.91;65.21;101064.44;5040839;28;9519;-68
2023/07/26 02:51:22;;;;;;;;;1.75;1.75;;;;;14.90;65.56;101065.44;5041727;28;9460;-68
2023/07/26 02:53:49;;;;;;;;;2.50;2.00;;;;;14.91;65.44;101071.69;5032726;28;9591;-68
2023/07/26 02:56:16;;;;;;;;;4.00;2.00;;;;;14.91;65.59;101067.13;5058129;28;9500;-69
2023/07/26 02:58:43;;;;;;;;;2.00;1.25;;;;;14.90;65.62;101073.59;5051880;28;9414;-68
2023/07/26 03:01:09;;;;;;;;;2.25;2.25;;;;;14.89;65.67;101069.22;5035842;28;9410;-69
2023/07/26 03:03:36;;;;;;;;;2.50;2.50;;;;;14.88;65.61;101073.00;5043162;28;9454;-68
2023/07/26 03:06:03;;;;;;;;;1.00;1.00;;;;;14.89;65.62;101069.22;5058525;28;9377;-68
2023/07/26 03:08:29;;;;;;;;;1.00;1.00;;;;;14.91;65.58;101069.00;5051692;28;9327;-69
2023/07/26 03:10:56;;;;;;;;;2.00;1.00;;;;;14.92;65.85;101062.53;5046440;28;9385;-65
2023/07/26 03:13:23;;;;;;;;;2.00;2.00;;;;;14.94;65.94;101063.16;5039520;28;9462;-69
2023/07/26 03:15:49;;;;;;;;;4.67;3.00;;;;;14.94;66.05;101063.16;5066549;28;9405;-68
2023/07/26 03:18:16;;;;;;;;;2.00;2.00;;;;;14.96;66.13;101069.19;5050185;28;9468;-69
2023/07/26 03:20:45;;;;;;;;;1.00;1.00;;;;;14.98;66.06;101072.50;5050052;28;9225;-69
2023/07/26 03:23:13;;;;;;;;;3.00;2.00;;;;;15.00;65.99;101073.13;5048364;28;9242;-69
2023/07/26 03:25:41;;;;;;;;;2.33;2.33;;;;;15.00;65.95;101065.00;5037846;28;9458;-68
2023/07/26 03:28:08;;;;;;;;;6.33;3.00;;;;;15.00;66.18;101067.72;5039505;28;9322;-69
2023/07/26 03:30:35;;;;;;;;;0.00;0.00;;;;;15.00;65.95;101065.81;5031081;28;10132;-68
2023/07/26 03:33:01;;;;;;;;;1.67;1.67;;;;;14.99;66.03;101066.88;5031295;28;9366;-69
2023/07/26 03:35:28;;;;;;;;;1.67;1.67;;;;;15.01;66.24;101064.78;5030171;28;9500;-69
2023/07/26 03:37:56;;;;;;;;;1.50;1.50;;;;;15.01;66.35;101063.94;5036201;28;9479;-69
2023/07/26 03:40:22;;;;;;;;;4.50;3.75;;;;;15.02;66.32;101062.88;5040228;28;9590;-68
2023/07/26 03:42:49;;;;;;;;;2.00;2.00;;;;;15.02;66.37;101066.44;5039534;28;9390;-69
2023/07/26 03:45:16;;;;;;;;;1.67;1.33;;;;;15.04;66.35;101058.91;5056513;28;9313;-69
2023/07/26 03:47:43;;;;;;;;;3.00;3.00;;;;;15.03;66.29;101059.16;5043938;28;9316;-68
2023/07/26 03:50:10;;;;;;;;;2.00;2.00;;;;;15.03;66.43;101053.72;5047894;28;9450;-69
2023/07/26 03:52:36;;;;;;;;;2.00;2.00;;;;;15.01;66.77;101062.06;5039282;28;9592;-69
2023/07/26 03:55:03;;;;;;;;;2.00;2.00;;;;;15.03;66.53;101061.88;5046862;28;9576;-68
2023/07/26 03:57:30;;;;;;;;;3.33;2.00;;;;;15.04;66.64;101064.34;5039643;28;9412;-68
2023/07/26 03:59:57;;;;;;;;;3.00;3.00;;;;;15.03;66.98;101061.88;5032619;28;9312;-69
2023/07/26 04:02:23;;;;;;;;;2.67;2.67;;;;;15.03;66.87;101059.16;5036967;28;9432;-67
2023/07/26 04:04:51;;;;;;;;;3.67;3.00;;;;;15.03;66.82;101051.00;5038403;28;9382;-69
2023/07/26 04:07:18;;;;;;;;;3.00;3.00;;;;;15.01;66.98;101051.22;5048879;28;9392;-69
2023/07/26 04:09:44;;;;;;;;;2.50;2.50;;;;;15.00;67.17;101049.56;5034165;28;9454;-68
2023/07/26 04:12:11;;;;;;;;;2.00;2.00;;;;;15.00;66.99;101056.88;5043638;28;9559;-68
2023/07/26 04:14:37;;;;;;;;;2.67;2.00;;;;;15.00;67.34;101046.84;5050479;28;9424;-69
2023/07/26 04:17:04;;;;;;;;;1.00;1.00;;;;;15.01;67.17;101047.69;5050141;28;9458;-67
2023/07/26 04:19:30;;;;;;;;;2.00;2.00;;;;;15.01;67.38;101047.69;5048917;28;9525;-68
2023/07/26 04:21:57;;;;;;;;;2.00;2.00;;;;;15.01;67.25;101053.09;5048855;28;9465;-69
2023/07/26 04:24:24;;;;;;;;;2.00;1.25;;;;;15.02;67.20;101060.19;5060961;28;9452;-69
2023/07/26 04:26:52;;;;;;;;;2.00;1.67;;;;;15.02;67.06;101057.47;5044452;28;9367;-68
2023/07/26 04:29:19;;;;;;;;;2.00;2.00;;;;;15.02;67.01;101057.47;5031735;28;9312;-68
2023/07/26 04:31:45;;;;;;;;;1.00;0.33;;;;;15.04;67.18;101060.81;5030314;28;9361;-69
2023/07/26 04:34:15;;;;;;;;;1.67;1.67;;;;;15.06;66.80;101064.13;5030282;28;9406;-68
2023/07/26 04:36:41;;;;;;;;;1.00;1.00;;;;;15.07;66.84;101061.19;5035801;28;10106;-69
2023/07/26 04:39:08;;;;;;;;;0.33;0.33;;;;;15.10;66.94;101070.75;5042669;28;9311;-69
2023/07/26 04:41:34;;;;;;;;;3.00;1.00;;;;;15.11;66.99;101060.75;5037884;28;9903;-68
2023/07/26 04:44:01;;;;;;;;;1.33;1.33;;;;;15.14;66.76;101061.13;5030365;28;9151;-69
2023/07/26 04:46:27;;;;;;;;;2.00;2.00;;;;;15.17;66.95;101063.41;5030361;28;9411;-69
2023/07/26 04:48:54;;;;;;;;;1.00;1.00;;;;;15.21;66.72;101063.81;5035435;28;9247;-69
2023/07/26 04:51:23;;;;;;;;;0.67;0.67;;;;;15.24;66.85;101074.22;5042848;28;9148;-68
2023/07/26 04:53:50;;;;;;;;;1.00;1.00;;;;;15.25;66.61;101070.47;5045634;28;9321;-67
2023/07/26 04:56:16;;;;;;;;;2.00;1.00;;;;;15.26;66.19;101063.97;5041962;28;9276;-68
2023/07/26 04:58:43;;;;;;;;;2.00;2.00;;;;;15.26;66.22;101061.25;5043532;28;9174;-66
2023/07/26 05:01:10;;;;;;;;;2.00;2.00;;;;;15.25;66.26;101068.56;5030580;28;9253;-68
2023/07/26 05:03:38;;;;;;;;;2.00;2.00;;;;;15.30;65.91;101063.31;5049897;28;9408;-69
2023/07/26 05:06:05;;;;;;;;;2.00;2.00;;;;;15.30;66.19;101066.03;5049584;28;9918;-68
2023/07/26 05:08:33;;;;;;;;;2.00;1.67;;;;;15.32;66.12;101066.66;5038507;28;9235;-66
2023/07/26 05:11:00;;;;;;;;;2.00;2.00;;;;;15.33;66.38;101075.63;5042210;28;9320;-69
2023/07/26 05:13:27;;;;;;;;;1.00;1.00;;;;;15.32;66.66;101074.78;5042540;28;10030;-69
2023/07/26 05:15:53;;;;;;;;;1.00;1.00;;;;;15.34;67.07;101071.84;5049757;28;9239;-68
2023/07/26 05:18:20;;;;;;;;;1.33;1.33;;;;;15.37;67.42;101084.97;5048688;28;9190;-68
2023/07/26 05:20:50;;;;;;;;;4.00;4.00;;;;;15.35;67.95;101087.06;5052948;28;9234;-69
2023/07/26 05:23:18;;;;;;;;;3.00;2.00;;;;;15.31;68.24;101100.25;5046158;28;9314;-68
2023/07/26 05:25:44;;;;;;;;;4.33;4.33;;;;;15.28;68.54;101108.00;5064577;28;9319;-68
2023/07/26 05:28:11;;;;;;;;;2.00;2.00;;;;;15.25;68.91;101098.41;5041698;28;9228;-69
2023/07/26 05:30:39;;;;;;;;;2.00;2.00;;;;;15.24;69.22;101101.34;5047435;28;9439;-69
2023/07/26 05:33:06;;;;;;;;;2.00;2.00;;;;;15.22;69.45;101106.16;5050309;28;9326;-65
2023/07/26 05:35:33;;;;;;;;;2.00;2.00;;;;;15.20;69.81;101109.09;5043955;28;9323;-65
2023/07/26 05:38:01;;;;;;;;;4.00;4.00;;;;;15.19;70.00;101120.13;5039438;28;9241;-67
2023/07/26 05:40:27;;;;;;;;;6.33;6.00;;;;;15.16;70.04;101120.59;5051982;28;9302;-66
2023/07/26 05:42:54;;;;;;;;;5.00;5.00;;;;;15.12;70.40;101120.19;5053324;28;10089;-66
2023/07/26 05:45:23;;;;;;;;;6.25;6.25;;;;;15.08;70.62;101121.69;5052204;28;9450;-66
2023/07/26 05:47:50;;;;;;;;;3.75;3.75;;;;;15.05;71.06;101122.09;5051746;28;9590;-66
2023/07/26 05:50:16;;;;;;;;;6.00;3.00;;;;;15.03;70.87;101129.63;5042156;28;9555;-67
2023/07/26 05:52:43;;;;;;;;;2.33;2.33;;;;;15.00;71.10;101127.34;5045260;28;9307;-67
2023/07/26 05:55:11;;;;;;;;;2.00;2.00;;;;;14.99;71.65;101120.25;5049174;28;10044;-67
2023/07/26 05:57:38;;;;;;;;;2.67;2.33;;;;;14.98;72.30;101122.13;5043897;28;9381;-65
2023/07/26 06:00:05;;;;;;;;;4.00;2.67;;;;;14.98;72.49;101119.41;5044967;28;9464;-67
2023/07/26 06:02:37;;;;;;;;;2.67;2.67;;;;;14.98;72.50;101132.16;5043711;28;9422;-65
2023/07/26 06:05:05;;;;;;;;;8.00;3.00;;;;;14.96;72.88;101126.94;5041168;28;9473;-65
2023/07/26 06:07:31;;;;;;;;;5.00;5.00;;;;;14.94;73.33;101128.19;5047097;28;9474;-66
2023/07/26 06:09:58;;;;;;;;;3.00;3.00;;;;;14.93;73.67;101123.84;5050952;28;9465;-65
2023/07/26 06:12:25;;;;;;;;;2.00;2.00;;;;;14.91;73.96;101120.50;5043933;28;9788;-65
2023/07/26 06:14:51;;;;;;;;;3.00;3.00;;;;;14.90;73.99;101118.84;5037414;28;9477;-65
2023/07/26 06:17:18;;;;;;;;;5.00;5.00;;;;;14.91;74.34;101120.50;5052303;28;9596;-65
2023/07/26 06:19:44;;;;;;;;;3.67;2.67;;;;;14.91;74.75;101126.78;5052577;28;9451;-66
2023/07/26 06:22:12;;;;;;;;;2.75;2.25;;;;;14.91;74.80;101124.06;5051825;28;9319;-66
2023/07/26 06:24:38;;;;;;;;;2.25;2.25;;;;;14.92;74.93;101133.03;5051747;28;9357;-65
2023/07/26 06:27:05;;;;;;;;;5.00;2.67;;;;;14.92;74.98;101135.72;5050946;28;9532;-66
2023/07/26 06:29:33;;;;;;;;;5.00;5.00;;;;;14.92;75.12;101136.56;5032954;28;9444;-66
2023/07/26 06:32:00;;;;;;;;;6.50;6.50;;;;;14.90;75.31;101143.22;5030359;28;9688;-66
2023/07/26 06:34:26;;;;;;;;;4.00;4.00;;;;;14.89;75.84;101141.56;5050808;28;9700;-66
2023/07/26 06:36:53;;;;;;;;;3.25;3.25;;;;;14.89;76.13;101149.72;5052222;28;9603;-65
2023/07/26 06:39:20;;;;;;;;;3.25;3.00;;;;;14.87;76.01;101143.66;5050972;28;9603;-66
2023/07/26 06:41:47;;;;;;;;;6.00;6.00;;;;;14.88;76.07;101151.59;5067321;28;9528;-65
2023/07/26 06:44:14;;;;;;;;;4.25;4.25;;;;;14.88;76.47;101150.75;5051519;28;9528;-66
2023/07/26 06:46:40;;;;;;;;;7.00;4.50;;;;;14.93;76.74;101153.66;5067783;28;9524;-67
2023/07/26 06:49:07;;;;;;;;;5.33;3.33;;;;;14.98;77.02;101151.94;5042979;28;9379;-67
2023/07/26 06:51:33;;;;;;;;;3.00;3.00;;;;;15.02;76.75;101163.19;5031188;28;9450;-67
2023/07/26 06:54:01;;;;;;;;;3.00;3.00;;;;;15.06;76.73;101159.00;5032040;28;9363;-67
2023/07/26 06:56:27;;;;;;;;;4.00;4.00;;;;;15.11;76.63;101166.47;5030916;28;9448;-67
2023/07/26 06:58:54;;;;;;;;;3.75;3.75;;;;;15.15;76.54;101163.16;5030510;28;9439;-68
2023/07/26 07:01:20;;;;;;;;;6.33;4.00;;;;;15.21;76.57;101164.97;5031598;28;9523;-66
2023/07/26 07:03:47;;;;;;;;;7.50;7.50;;;;;15.30;76.16;101160.97;5032365;28;9445;-68
2023/07/26 07:06:28;;;;;;;;;3.67;3.00;;;;;15.32;75.89;101164.28;5034108;28;9566;-68
2023/07/26 07:08:55;;;;;;;;;3.00;3.00;;;;;15.38;75.76;101167.19;5044327;28;9266;-68
2023/07/26 07:11:24;;;;;;;;;3.67;3.67;;;;;15.40;75.83;101171.34;5051302;28;9307;-66
2023/07/26 07:13:51;;;;;;;;;4.00;3.33;;;;;15.41;75.71;101169.47;5051697;28;9365;-68
2023/07/26 07:16:17;;;;;;;;;7.00;4.00;;;;;15.44;75.53;101171.75;5066992;28;9400;-68
2023/07/26 07:18:44;;;;;;;;;3.33;3.00;;;;;15.44;75.24;101174.47;5047555;28;9590;-68
2023/07/26 07:21:10;;;;;;;;;5.67;3.00;;;;;15.46;75.50;101156.91;5042920;28;9308;-66
2023/07/26 07:23:37;;;;;;;;;2.00;1.67;;;;;15.52;75.45;101157.94;5040583;28;9374;-68
2023/07/26 07:26:04;;;;;;;;;5.00;3.00;;;;;15.57;75.67;101161.63;5049426;28;9270;-68
2023/07/26 07:28:30;;;;;;;;;3.00;3.00;;;;;15.63;75.52;101157.19;5050654;28;9178;-70
2023/07/26 07:30:57;;;;;;;;;5.00;4.00;;;;;15.62;75.27;101168.28;5042126;28;9787;-68
2023/07/26 07:33:23;;;;;;;;;5.67;5.67;;;;;15.63;75.13;101169.94;5029867;28;9323;-65
2023/07/26 07:35:50;;;;;;;;;2.00;2.00;;;;;15.73;75.48;101165.72;5033956;28;9444;-67
2023/07/26 07:38:16;;;;;;;;;5.00;3.00;;;;;15.80;74.69;101166.50;5030435;28;9111;-67
2023/07/26 07:40:43;;;;;;;;;1.00;1.00;;;;;15.86;74.75;101167.50;5041227;28;9209;-68
2023/07/26 07:43:09;;;;;;;;;3.67;3.67;;;;;15.89;74.68;101167.06;5045582;28;9280;-68
2023/07/26 07:45:42;;;;;;;;;2.00;2.00;;;;;15.91;74.68;101170.38;5031536;28;9221;-68
2023/07/26 07:48:09;;;;;;;;;2.33;2.33;;;;;15.94;74.75;101167.22;5030808;28;9069;-68
2023/07/26 07:50:36;;;;;;;;;7.33;2.00;;;;;15.99;74.48;101163.84;5030650;28;9159;-68
2023/07/26 07:53:03;;;;;;;;;4.00;2.33;;;;;16.02;74.84;101168.84;5030887;28;9234;-68
2023/07/26 07:55:31;;;;;;;;;2.67;2.67;;;;;16.05;75.25;101162.97;5036050;28;8972;-67
2023/07/26 07:58:01;;;;;;;;;5.00;3.00;;;;;16.02;74.78;101163.41;5033890;28;9082;-67
2023/07/26 08:00:28;;;;;;;;;5.00;3.00;;;;;16.01;74.71;101162.56;5030677;28;9175;-67
2023/07/26 08:02:54;;;;;;;;;2.67;2.00;;;;;16.03;74.48;101163.16;5036534;28;9084;-67
2023/07/26 08:05:21;;;;;;;;;3.00;3.00;;;;;16.06;74.87;101160.00;5050608;28;9002;-69
2023/07/26 08:07:50;;;;;;;;;2.00;2.00;;;;;16.07;75.01;101167.09;5050342;28;9055;-68
2023/07/26 08:10:17;;;;;;;;;3.67;2.33;;;;;16.08;74.58;101162.50;5046244;28;9044;-68
2023/07/26 08:12:44;;;;;;;;;6.00;5.00;;;;;16.04;74.97;101158.56;5042543;28;9174;-67
2023/07/26 08:15:11;;;;;;;;;2.00;2.00;;;;;16.07;74.79;101166.28;5048184;28;9958;-67
2023/07/26 08:17:39;;;;;;;;;2.67;2.67;;;;;16.18;74.94;101168.25;5050310;28;8937;-69
2023/07/26 08:20:07;;;;;;;;;2.00;2.00;;;;;16.24;74.88;101169.25;5050237;28;9170;-69
2023/07/26 08:22:34;;;;;;;;;1.67;1.67;;;;;16.28;74.59;101167.75;5048729;28;9081;-69
2023/07/26 08:25:01;;;;;;;;;0.67;0.67;;;;;16.32;74.59;101177.09;5048889;28;9037;-69
2023/07/26 08:27:30;;;;;;;;;1.00;1.00;;;;;16.30;74.41;101173.81;5048549;28;8980;-69
2023/07/26 08:29:57;;;;;;;;;1.00;1.00;;;;;16.30;74.09;101171.91;5046708;28;9051;-67
2023/07/26 08:32:23;;;;;;;;;1.67;1.67;;;;;16.30;74.37;101165.66;5035250;28;8993;-68
2023/07/26 08:34:50;;;;;;;;;3.00;3.00;;;;;16.32;74.72;101158.09;5045580;28;9040;-68
2023/07/26 08:37:18;;;;;;;;;1.00;1.00;;;;;16.31;74.67;101167.31;5030187;28;9001;-68
2023/07/26 08:39:45;;;;;;;;;2.00;2.00;;;;;16.28;74.64;101175.91;5030422;28;8850;-67
2023/07/26 08:42:12;;;;;;;;;1.00;1.00;;;;;16.26;74.96;101180.72;5063058;28;9067;-68
2023/07/26 08:44:40;;;;;;;;;2.33;2.00;;;;;16.23;75.20;101175.75;5040738;28;8990;-69
2023/07/26 08:47:08;;;;;;;;;1.00;1.00;;;;;16.14;75.33;101183.34;5041295;28;9003;-68
2023/07/26 08:49:36;;;;;;;;;7.33;4.33;;;;;16.04;75.89;101189.28;5049894;28;8952;-68
2023/07/26 08:52:03;;;;;;;;;2.00;2.00;;;;;16.00;76.34;101182.63;5073419;28;8960;-69
2023/07/26 08:54:30;;;;;;;;;1.75;1.75;;;;;15.98;76.33;101184.72;5049712;28;8970;-66
2023/07/26 08:56:57;;;;;;;;;1.00;1.00;;;;;16.00;76.72;101176.34;5046598;28;8964;-67
2023/07/26 08:59:24;;;;;;;;;1.00;1.00;;;;;16.02;76.67;101179.69;5035452;28;9014;-66
2023/07/26 09:01:54;;;;;;;;;2.00;2.00;;;;;16.09;77.13;101183.19;5040984;28;8933;-69
2023/07/26 09:04:33;;;;;;;;;2.00;2.00;;;;;16.20;77.03;101171.56;5048364;28;8888;-67
2023/07/26 09:07:01;;;;;;;;;2.00;2.00;;;;;16.37;77.35;101179.19;5048150;28;8975;-68
2023/07/26 09:09:29;;;;;;;;;3.33;3.00;;;;;16.48;77.51;101171.09;5048867;28;8907;-68
2023/07/26 09:11:56;;;;;;;;;4.00;4.00;;;;;16.55;77.29;101177.28;5045774;28;9015;-67
2023/07/26 09:14:31;;;;;;;;;3.00;3.00;;;;;16.50;76.56;101169.00;5048448;28;8900;-68
2023/07/26 09:17:00;;;;;;;;;3.00;2.00;;;;;16.45;76.66;101170.75;5048367;28;9068;-67
2023/07/26 09:19:35;;;;;;;;;4.00;3.33;;;;;16.44;76.85;101169.06;5049810;28;8917;-68
2023/07/26 09:22:04;;;;;;;;;2.00;1.00;;;;;16.37;76.85;101177.28;5049737;28;8986;-69
2023/07/26 09:24:35;;;;;;;;;3.75;0.50;;;;;16.27;76.71;101175.06;5047817;28;8930;-67
2023/07/26 09:27:10;;;;;;;;;2.33;1.00;;;;;16.30;76.52;101171.91;5035404;28;8889;-67
2023/07/26 09:29:39;;;;;;;;;1.50;1.00;;;;;16.38;76.27;101169.97;5048233;28;9660;-68
2023/07/26 09:32:07;;;;;;;;;2.00;2.00;;;;;16.51;76.34;101167.94;5049530;28;8822;-68
2023/07/26 09:34:34;;;;;;;;;2.00;1.00;;;;;16.60;75.24;101164.91;5049814;28;8906;-68
2023/07/26 09:37:00;;;;;;;;;2.00;2.00;;;;;16.69;75.21;101167.13;5049457;28;9086;-68
2023/07/26 09:39:32;;;;;;;;;1.00;1.00;;;;;16.82;74.71;101168.88;5050680;28;8837;-67
2023/07/26 09:42:08;;;;;;;;;1.33;1.33;;;;;16.82;73.81;101170.78;5049904;28;9544;-68
2023/07/26 09:44:36;;;;;;;;;1.25;1.25;;;;;16.78;73.66;101170.41;5034383;28;9001;-67
2023/07/26 09:47:03;;;;;;;;;2.00;2.00;;;;;16.71;73.21;101175.03;5064155;28;8919;-68
2023/07/26 09:49:30;;;;;;;;;2.00;2.00;;;;;16.62;73.16;101177.22;5050698;28;8933;-68
2023/07/26 09:52:01;;;;;;;;;1.00;1.00;;;;;16.65;73.25;101170.50;5050219;28;9068;-67
2023/07/26 09:54:32;;;;;;;;;3.67;3.00;;;;;16.66;72.50;101170.28;5049313;28;8853;-68
2023/07/26 09:57:01;;;;;;;;;1.75;1.75;;;;;16.65;72.02;101174.06;5050670;28;9438;-67
2023/07/26 09:59:29;;;;;;;;;1.50;1.00;;;;;16.67;71.29;101169.22;5048278;28;8838;-69
2023/07/26 10:02:02;;;;;;;;;1.00;1.00;;;;;16.70;70.85;101171.50;5038338;28;8835;-68
2023/07/26 10:04:51;;;;;;;;;2.00;1.00;;;;;16.75;70.64;101179.81;5047043;28;8896;-68
2023/07/26 10:07:19;;;;;;;;;2.67;2.67;;;;;16.74;70.71;101183.59;5067890;28;8830;-69
2023/07/26 10:09:48;;;;;;;;;3.00;3.00;;;;;16.76;70.87;101180.66;5052803;28;8993;-68
2023/07/26 10:12:15;;;;;;;;;1.75;1.00;;;;;16.74;70.81;101190.94;5033777;28;9000;-72
2023/07/26 10:14:42;;;;;;;;;2.00;1.00;;;;;16.72;70.97;101191.09;5040014;28;8872;-69
2023/07/26 10:17:12;;;;;;;;;1.67;1.67;;;;;16.74;71.33;101194.47;5041810;28;8928;-69
2023/07/26 10:19:41;;;;;;;;;3.00;3.00;;;;;16.72;71.41;101193.81;5040348;28;8977;-67
2023/07/26 10:22:08;;;;;;;;;3.00;3.00;;;;;16.70;71.38;101192.41;5050419;28;9076;-67
2023/07/26 10:24:36;;;;;;;;;3.00;3.00;;;;;16.73;71.32;101191.97;5068607;28;9143;-69
2023/07/26 10:27:04;;;;;;;;;4.00;3.00;;;;;16.87;71.81;101192.66;5038236;28;9007;-69
2023/07/26 10:29:31;;;;;;;;;3.00;2.67;;;;;16.97;71.54;101193.78;5032339;28;8906;-68
2023/07/26 10:32:03;;;;;;;;;3.67;3.67;;;;;17.02;71.16;101191.22;5047627;28;9027;-69
2023/07/26 10:34:30;;;;;;;;;4.00;3.33;;;;;17.10;70.61;101187.34;5031318;28;9109;-67
2023/07/26 10:36:57;;;;;;;;;3.00;3.00;;;;;17.19;70.66;101190.59;5051290;28;9010;-68
2023/07/26 10:39:34;;;;;;;;;1.00;1.00;;;;;17.29;69.88;101193.56;5053334;28;8921;-67
2023/07/26 10:42:04;;;;;;;;;3.50;3.25;;;;;17.33;69.43;101186.63;5042819;28;8886;-67
2023/07/26 10:44:40;;;;;;;;;3.33;3.33;;;;;17.41;69.06;101182.75;5032541;28;8863;-70
2023/07/26 10:47:07;;;;;;;;;5.00;4.00;;;;;17.52;68.75;101192.84;5045009;28;9001;-66
2023/07/26 10:49:33;;;;;;;;;6.00;3.00;;;;;17.55;68.48;101187.78;5032055;28;8898;-68
2023/07/26 10:52:02;;;;;;;;;3.25;3.00;;;;;17.58;68.35;101197.34;5031565;28;8859;-68
2023/07/26 10:54:47;;;;;;;;;1.33;1.33;;;;;17.61;67.52;101193.34;5032048;28;9551;-68
2023/07/26 10:57:26;;;;;;;;;1.75;1.75;;;;;17.57;67.02;101192.16;5038323;28;9625;-69
2023/07/26 11:00:00;;;;;;;;;3.00;3.00;;;;;17.61;65.81;101188.72;5034502;28;8886;-67
2023/07/26 11:02:46;;;;;;;;;4.00;2.50;;;;;17.70;65.80;101191.94;5038402;28;8826;-66
2023/07/26 11:05:16;;;;;;;;;3.00;3.00;;;;;17.76;66.18;101197.31;5031855;28;8828;-67
2023/07/26 11:08:01;;;;;;;;;2.00;2.00;;;;;17.68;66.28;101194.91;5030520;28;10001;-68
2023/07/26 11:10:35;;;;;;;;;4.00;4.00;;;;;17.63;66.21;101199.41;5031691;28;9567;-67
2023/07/26 11:13:05;;;;;;;;;4.00;4.00;;;;;17.71;65.97;101185.47;5031645;28;9062;-68
2023/07/26 11:15:32;;;;;;;;;3.00;3.00;;;;;17.81;65.27;101190.34;5031739;28;8839;-67
2023/07/26 11:18:20;;;;;;;;;3.75;3.75;;;;;17.76;64.22;101189.16;5034762;28;8881;-67
2023/07/26 11:20:49;;;;;;;;;2.50;2.50;;;;;17.74;63.95;101196.75;5049826;28;8842;-67
2023/07/26 11:23:24;;;;;;;;;3.75;3.75;;;;;17.77;63.59;101204.44;5051667;28;8810;-67
2023/07/26 11:26:01;;;;;;;;;4.00;4.00;;;;;17.74;62.81;101204.91;5051468;28;8842;-67
2023/07/26 11:28:31;;;;;;;;;2.25;2.25;;;;;17.77;62.17;101201.69;5032682;28;8950;-67
2023/07/26 11:30:59;;;;;;;;;5.50;4.00;;;;;17.76;62.29;101200.06;5029895;28;8859;-69
2023/07/26 11:33:36;;;;;;;;;4.00;4.00;;;;;17.71;63.24;101216.22;5031331;28;8850;-67
2023/07/26 11:36:05;;;;;;;;;2.00;2.00;;;;;17.72;62.54;101208.88;5033753;28;9028;-69
2023/07/26 11:38:32;;;;;;;;;3.00;3.00;;;;;17.79;61.80;101213.22;5046315;28;8855;-68